Opa-locka, FL

8:32 PM EDT on September 30, 2016 (GMT -0400)
Opa Locka | | Change Station

Elev 10 ft 25.91 °N, 80.28 °W | Updated 39 minutes ago

Light Rain
Light Rain
76 °F
Feels Like 76 °F
N
0
Wind Variable Wind from North

Today
High -- | Low -- °F
--% Chance of Precip.
Yesterday
High -- | Low -- °F
Precip. -- in
Pressure 30.03 in
Visibility 10.0 miles
Clouds Few 8500 ft
Mostly Cloudy 11000 ft
Dew Point 73 °F
Humidity 91%
Rainfall 0.00 in
Snow Depth Not available.
7:13 AM 7:08 PM
New Moon, 0% visible
METAR KOPF 302353Z 00000KT 10SM -RA FEW085 BKN110 24/23 A3002 RMK AO2 LTG DSNT E TSB13E28 SLP167 6//// T02440228 10317 20244 53010 PNO $
Pressure 30.03 in
Visibility 10.0 miles
Clouds Few 8500 ft
Mostly Cloudy 11000 ft
Dew Point 73 °F
Humidity 91%
Rainfall 0.00 in
Snow Depth Not available.
7:13 AM 7:08 PM
New Moon, 0% visible
METAR KOPF 302353Z 00000KT 10SM -RA FEW085 BKN110 24/23 A3002 RMK AO2 LTG DSNT E TSB13E28 SLP167 6//// T02440228 10317 20244 53010 PNO $

10-Day Weather Forecast

Almanac

Astronomy

Sep. 30, 2016 Rise Set
Actual Time
Civil Twilight
Nautical Twilight
Astronomical Twilight
Moon
Length of Visible Light
Length of Day
Tomorrow will be .
, % of the Moon is Illuminated

Today's Extremes

State Highs State Lows

Community

WunderPhotos

Upload Photos

1,942,835 photos uploaded!

WunderBlog® & News

Nearby

Air Quality

  Air Quality AQ Index Pollutant
Not available.

Snow Depth

Station Depth Elevation

Earthquake Activity

City Distance Mag. Time & Date
Minimum magnitude displayed is 2.5.

Coastal Water Temperatures

Place Temperature

Stations

Nearby Weather Stations

Station Location Temp. Windchill Dew Point Humidity Wind Precip. Elev Updated Type
                   

Watches & Warnings

There are currently no watches in effect.